sensor_id;sensor_type;location;lat;lon;timestamp;P1;durP1;ratioP1;P2;durP2;ratioP2
46116;SDS011;32591;48.102;11.772;2022-11-22T00:00:34;4.00;;;1.83;;
46116;SDS011;32591;48.102;11.772;2022-11-22T00:03:01;3.92;;;2.25;;
46116;SDS011;32591;48.102;11.772;2022-11-22T00:05:30;4.03;;;2.15;;
46116;SDS011;32591;48.102;11.772;2022-11-22T00:07:57;5.00;;;2.42;;
46116;SDS011;32591;48.102;11.772;2022-11-22T00:10:24;4.60;;;2.28;;
46116;SDS011;32591;48.102;11.772;2022-11-22T00:12:51;3.90;;;2.10;;
46116;SDS011;32591;48.102;11.772;2022-11-22T00:15:19;4.47;;;2.10;;
46116;SDS011;32591;48.102;11.772;2022-11-22T00:17:46;3.38;;;1.90;;
46116;SDS011;32591;48.102;11.772;2022-11-22T00:20:13;2.67;;;1.95;;
46116;SDS011;32591;48.102;11.772;2022-11-22T00:22:43;3.00;;;1.70;;
46116;SDS011;32591;48.102;11.772;2022-11-22T00:25:10;4.45;;;1.83;;
46116;SDS011;32591;48.102;11.772;2022-11-22T00:27:38;3.35;;;1.90;;
46116;SDS011;32591;48.102;11.772;2022-11-22T00:30:06;3.03;;;1.88;;
46116;SDS011;32591;48.102;11.772;2022-11-22T00:32:34;3.80;;;1.70;;
46116;SDS011;32591;48.102;11.772;2022-11-22T00:35:02;3.58;;;1.83;;
46116;SDS011;32591;48.102;11.772;2022-11-22T00:37:30;3.22;;;2.03;;
46116;SDS011;32591;48.102;11.772;2022-11-22T00:39:59;1.92;;;1.70;;
46116;SDS011;32591;48.102;11.772;2022-11-22T00:42:26;3.25;;;1.95;;
46116;SDS011;32591;48.102;11.772;2022-11-22T00:44:53;3.10;;;1.75;;
46116;SDS011;32591;48.102;11.772;2022-11-22T00:49:47;3.70;;;2.33;;
46116;SDS011;32591;48.102;11.772;2022-11-22T00:52:14;4.28;;;1.92;;
46116;SDS011;32591;48.102;11.772;2022-11-22T00:57:11;3.55;;;2.03;;
46116;SDS011;32591;48.102;11.772;2022-11-22T00:59:38;3.50;;;1.98;;
46116;SDS011;32591;48.102;11.772;2022-11-22T01:02:05;5.35;;;2.10;;
46116;SDS011;32591;48.102;11.772;2022-11-22T01:04:32;4.32;;;2.42;;
46116;SDS011;32591;48.102;11.772;2022-11-22T01:06:59;4.93;;;1.77;;
46116;SDS011;32591;48.102;11.772;2022-11-22T01:09:26;3.10;;;1.80;;
46116;SDS011;32591;48.102;11.772;2022-11-22T01:11:53;3.55;;;1.92;;
46116;SDS011;32591;48.102;11.772;2022-11-22T01:14:21;3.35;;;2.30;;
46116;SDS011;32591;48.102;11.772;2022-11-22T01:16:48;3.33;;;1.88;;
46116;SDS011;32591;48.102;11.772;2022-11-22T01:19:15;3.30;;;2.15;;
46116;SDS011;32591;48.102;11.772;2022-11-22T01:24:09;3.17;;;2.03;;
46116;SDS011;32591;48.102;11.772;2022-11-22T01:26:36;4.28;;;2.13;;
46116;SDS011;32591;48.102;11.772;2022-11-22T01:29:04;3.72;;;1.92;;
46116;SDS011;32591;48.102;11.772;2022-11-22T01:31:33;3.50;;;2.42;;
46116;SDS011;32591;48.102;11.772;2022-11-22T01:34:00;3.50;;;1.92;;
46116;SDS011;32591;48.102;11.772;2022-11-22T01:36:30;4.13;;;2.63;;
46116;SDS011;32591;48.102;11.772;2022-11-22T01:38:57;3.10;;;1.90;;
46116;SDS011;32591;48.102;11.772;2022-11-22T01:41:24;4.38;;;2.50;;
46116;SDS011;32591;48.102;11.772;2022-11-22T01:43:52;3.08;;;2.05;;
46116;SDS011;32591;48.102;11.772;2022-11-22T01:46:22;3.85;;;2.00;;
46116;SDS011;32591;48.102;11.772;2022-11-22T01:48:58;6.90;;;2.90;;
46116;SDS011;32591;48.102;11.772;2022-11-22T01:51:30;7.68;;;3.35;;
46116;SDS011;32591;48.102;11.772;2022-11-22T01:54:01;4.65;;;2.72;;
46116;SDS011;32591;48.102;11.772;2022-11-22T01:56:33;4.10;;;2.42;;
46116;SDS011;32591;48.102;11.772;2022-11-22T01:59:02;4.28;;;2.60;;
46116;SDS011;32591;48.102;11.772;2022-11-22T02:01:33;4.45;;;2.75;;
46116;SDS011;32591;48.102;11.772;2022-11-22T02:04:03;4.43;;;2.33;;
46116;SDS011;32591;48.102;11.772;2022-11-22T02:06:34;4.00;;;2.28;;
46116;SDS011;32591;48.102;11.772;2022-11-22T02:09:06;3.60;;;2.20;;
46116;SDS011;32591;48.102;11.772;2022-11-22T02:11:36;2.42;;;1.70;;
46116;SDS011;32591;48.102;11.772;2022-11-22T02:14:07;4.50;;;2.72;;
46116;SDS011;32591;48.102;11.772;2022-11-22T02:16:35;3.75;;;1.90;;
46116;SDS011;32591;48.102;11.772;2022-11-22T02:19:05;3.30;;;1.92;;
46116;SDS011;32591;48.102;11.772;2022-11-22T02:21:40;3.55;;;2.42;;
46116;SDS011;32591;48.102;11.772;2022-11-22T02:24:09;3.58;;;2.20;;
46116;SDS011;32591;48.102;11.772;2022-11-22T02:26:44;3.28;;;2.28;;
46116;SDS011;32591;48.102;11.772;2022-11-22T02:29:11;3.63;;;1.75;;
46116;SDS011;32591;48.102;11.772;2022-11-22T02:31:40;4.20;;;1.98;;
46116;SDS011;32591;48.102;11.772;2022-11-22T02:34:09;3.78;;;1.80;;
46116;SDS011;32591;48.102;11.772;2022-11-22T02:36:37;4.45;;;1.83;;
46116;SDS011;32591;48.102;11.772;2022-11-22T02:39:08;2.33;;;1.65;;
46116;SDS011;32591;48.102;11.772;2022-11-22T02:41:39;2.88;;;1.85;;
46116;SDS011;32591;48.102;11.772;2022-11-22T02:44:07;4.72;;;2.22;;
46116;SDS011;32591;48.102;11.772;2022-11-22T02:46:41;2.85;;;1.67;;
46116;SDS011;32591;48.102;11.772;2022-11-22T02:49:14;3.90;;;1.60;;
46116;SDS011;32591;48.102;11.772;2022-11-22T02:51:43;2.50;;;1.80;;
46116;SDS011;32591;48.102;11.772;2022-11-22T02:54:10;4.10;;;1.70;;
46116;SDS011;32591;48.102;11.772;2022-11-22T02:56:38;2.90;;;1.67;;
46116;SDS011;32591;48.102;11.772;2022-11-22T02:59:05;2.40;;;1.52;;
46116;SDS011;32591;48.102;11.772;2022-11-22T03:01:33;2.58;;;1.80;;
46116;SDS011;32591;48.102;11.772;2022-11-22T03:04:00;1.88;;;1.50;;
46116;SDS011;32591;48.102;11.772;2022-11-22T03:06:27;3.58;;;1.38;;
46116;SDS011;32591;48.102;11.772;2022-11-22T03:08:55;3.17;;;1.80;;
46116;SDS011;32591;48.102;11.772;2022-11-22T03:11:22;2.53;;;1.48;;
46116;SDS011;32591;48.102;11.772;2022-11-22T03:13:49;3.05;;;1.83;;
46116;SDS011;32591;48.102;11.772;2022-11-22T03:16:16;3.25;;;1.80;;
46116;SDS011;32591;48.102;11.772;2022-11-22T03:18:44;2.00;;;1.60;;
46116;SDS011;32591;48.102;11.772;2022-11-22T03:21:11;2.53;;;1.50;;
46116;SDS011;32591;48.102;11.772;2022-11-22T03:23:38;1.98;;;1.20;;
46116;SDS011;32591;48.102;11.772;2022-11-22T03:26:06;2.55;;;1.40;;
46116;SDS011;32591;48.102;11.772;2022-11-22T03:28:34;2.92;;;1.83;;
46116;SDS011;32591;48.102;11.772;2022-11-22T03:31:03;2.97;;;1.70;;
46116;SDS011;32591;48.102;11.772;2022-11-22T03:33:30;2.75;;;1.67;;
46116;SDS011;32591;48.102;11.772;2022-11-22T03:35:59;2.35;;;1.50;;
46116;SDS011;32591;48.102;11.772;2022-11-22T03:38:27;4.38;;;1.98;;
46116;SDS011;32591;48.102;11.772;2022-11-22T03:40:54;3.35;;;1.67;;
46116;SDS011;32591;48.102;11.772;2022-11-22T03:43:21;3.25;;;1.40;;
46116;SDS011;32591;48.102;11.772;2022-11-22T03:45:48;1.83;;;1.30;;
46116;SDS011;32591;48.102;11.772;2022-11-22T03:48:15;2.95;;;1.50;;
46116;SDS011;32591;48.102;11.772;2022-11-22T03:50:43;2.80;;;1.17;;
46116;SDS011;32591;48.102;11.772;2022-11-22T03:53:11;1.45;;;1.20;;
46116;SDS011;32591;48.102;11.772;2022-11-22T03:55:39;1.27;;;1.17;;
46116;SDS011;32591;48.102;11.772;2022-11-22T03:58:06;1.30;;;1.15;;
46116;SDS011;32591;48.102;11.772;2022-11-22T04:00:33;3.03;;;1.40;;
46116;SDS011;32591;48.102;11.772;2022-11-22T04:03:01;2.28;;;1.48;;
46116;SDS011;32591;48.102;11.772;2022-11-22T04:05:28;1.75;;;0.98;;
46116;SDS011;32591;48.102;11.772;2022-11-22T04:07:55;1.85;;;1.25;;
46116;SDS011;32591;48.102;11.772;2022-11-22T04:10:23;2.60;;;1.73;;
46116;SDS011;32591;48.102;11.772;2022-11-22T04:12:55;3.20;;;1.63;;
46116;SDS011;32591;48.102;11.772;2022-11-22T04:15:23;2.55;;;1.30;;
46116;SDS011;32591;48.102;11.772;2022-11-22T04:17:49;3.17;;;1.73;;
46116;SDS011;32591;48.102;11.772;2022-11-22T04:20:17;1.73;;;1.15;;
46116;SDS011;32591;48.102;11.772;2022-11-22T04:23:03;4.20;;;1.63;;
46116;SDS011;32591;48.102;11.772;2022-11-22T04:25:34;3.25;;;1.70;;
46116;SDS011;32591;48.102;11.772;2022-11-22T04:28:02;3.38;;;1.50;;
46116;SDS011;32591;48.102;11.772;2022-11-22T04:30:31;2.00;;;1.15;;
46116;SDS011;32591;48.102;11.772;2022-11-22T04:33:16;2.42;;;1.38;;
46116;SDS011;32591;48.102;11.772;2022-11-22T04:35:44;1.73;;;1.23;;
46116;SDS011;32591;48.102;11.772;2022-11-22T04:38:12;1.95;;;1.20;;
46116;SDS011;32591;48.102;11.772;2022-11-22T04:40:41;1.83;;;1.30;;
46116;SDS011;32591;48.102;11.772;2022-11-22T04:43:19;3.05;;;1.42;;
46116;SDS011;32591;48.102;11.772;2022-11-22T04:46:06;5.15;;;1.65;;
46116;SDS011;32591;48.102;11.772;2022-11-22T04:48:33;2.78;;;1.50;;
46116;SDS011;32591;48.102;11.772;2022-11-22T04:51:00;2.75;;;1.13;;
46116;SDS011;32591;48.102;11.772;2022-11-22T04:53:45;3.65;;;1.48;;
46116;SDS011;32591;48.102;11.772;2022-11-22T04:56:14;2.03;;;1.10;;
46116;SDS011;32591;48.102;11.772;2022-11-22T04:58:41;1.92;;;1.13;;
46116;SDS011;32591;48.102;11.772;2022-11-22T05:01:08;2.95;;;1.60;;
46116;SDS011;32591;48.102;11.772;2022-11-22T05:03:35;5.00;;;1.35;;
46116;SDS011;32591;48.102;11.772;2022-11-22T05:06:03;3.22;;;1.45;;
46116;SDS011;32591;48.102;11.772;2022-11-22T05:08:31;3.15;;;1.20;;
46116;SDS011;32591;48.102;11.772;2022-11-22T05:10:59;3.13;;;1.23;;
46116;SDS011;32591;48.102;11.772;2022-11-22T05:15:57;2.08;;;1.08;;
46116;SDS011;32591;48.102;11.772;2022-11-22T05:18:25;2.47;;;1.30;;
46116;SDS011;32591;48.102;11.772;2022-11-22T05:20:53;1.67;;;1.17;;
46116;SDS011;32591;48.102;11.772;2022-11-22T05:23:21;2.78;;;1.20;;
46116;SDS011;32591;48.102;11.772;2022-11-22T05:26:07;3.22;;;1.08;;
46116;SDS011;32591;48.102;11.772;2022-11-22T05:28:37;3.17;;;1.25;;
46116;SDS011;32591;48.102;11.772;2022-11-22T05:31:05;2.58;;;1.08;;
46116;SDS011;32591;48.102;11.772;2022-11-22T05:33:34;1.48;;;0.93;;
46116;SDS011;32591;48.102;11.772;2022-11-22T05:36:02;2.47;;;1.25;;
46116;SDS011;32591;48.102;11.772;2022-11-22T05:38:31;4.07;;;1.85;;
46116;SDS011;32591;48.102;11.772;2022-11-22T05:40:59;1.92;;;1.10;;
46116;SDS011;32591;48.102;11.772;2022-11-22T05:43:27;3.40;;;1.00;;
46116;SDS011;32591;48.102;11.772;2022-11-22T05:46:02;3.03;;;1.60;;
46116;SDS011;32591;48.102;11.772;2022-11-22T05:48:31;2.72;;;1.00;;
46116;SDS011;32591;48.102;11.772;2022-11-22T05:51:01;2.70;;;1.35;;
46116;SDS011;32591;48.102;11.772;2022-11-22T05:53:29;2.08;;;1.20;;
46116;SDS011;32591;48.102;11.772;2022-11-22T05:55:56;1.40;;;0.82;;
46116;SDS011;32591;48.102;11.772;2022-11-22T05:58:24;3.92;;;1.10;;
46116;SDS011;32591;48.102;11.772;2022-11-22T06:00:51;3.92;;;1.33;;
46116;SDS011;32591;48.102;11.772;2022-11-22T06:03:19;4.88;;;1.35;;
46116;SDS011;32591;48.102;11.772;2022-11-22T06:05:49;3.22;;;1.23;;
46116;SDS011;32591;48.102;11.772;2022-11-22T06:08:17;2.45;;;1.08;;
46116;SDS011;32591;48.102;11.772;2022-11-22T06:10:44;2.55;;;1.60;;
46116;SDS011;32591;48.102;11.772;2022-11-22T06:13:11;5.35;;;1.17;;
46116;SDS011;32591;48.102;11.772;2022-11-22T06:15:38;5.18;;;1.23;;
46116;SDS011;32591;48.102;11.772;2022-11-22T06:18:05;2.55;;;1.27;;
46116;SDS011;32591;48.102;11.772;2022-11-22T06:20:33;4.68;;;1.15;;
46116;SDS011;32591;48.102;11.772;2022-11-22T06:23:00;5.03;;;1.27;;
46116;SDS011;32591;48.102;11.772;2022-11-22T06:25:27;3.03;;;1.40;;
46116;SDS011;32591;48.102;11.772;2022-11-22T06:27:56;2.13;;;1.10;;
46116;SDS011;32591;48.102;11.772;2022-11-22T06:30:24;4.32;;;1.67;;
46116;SDS011;32591;48.102;11.772;2022-11-22T06:32:51;5.28;;;2.03;;
46116;SDS011;32591;48.102;11.772;2022-11-22T06:35:18;7.28;;;1.60;;
46116;SDS011;32591;48.102;11.772;2022-11-22T06:37:46;4.07;;;1.85;;
46116;SDS011;32591;48.102;11.772;2022-11-22T06:40:14;5.72;;;1.65;;
46116;SDS011;32591;48.102;11.772;2022-11-22T06:42:43;6.20;;;2.30;;
46116;SDS011;32591;48.102;11.772;2022-11-22T06:45:10;4.95;;;1.67;;
46116;SDS011;32591;48.102;11.772;2022-11-22T06:47:37;7.22;;;1.80;;
46116;SDS011;32591;48.102;11.772;2022-11-22T06:50:04;3.83;;;1.92;;
46116;SDS011;32591;48.102;11.772;2022-11-22T06:52:32;4.65;;;2.38;;
46116;SDS011;32591;48.102;11.772;2022-11-22T06:57:27;4.50;;;1.90;;
46116;SDS011;32591;48.102;11.772;2022-11-22T06:59:54;3.45;;;1.70;;
46116;SDS011;32591;48.102;11.772;2022-11-22T07:04:48;3.90;;;1.60;;
46116;SDS011;32591;48.102;11.772;2022-11-22T07:07:15;3.03;;;1.10;;
46116;SDS011;32591;48.102;11.772;2022-11-22T07:12:10;1.50;;;1.08;;
46116;SDS011;32591;48.102;11.772;2022-11-22T07:14:37;2.58;;;1.30;;
46116;SDS011;32591;48.102;11.772;2022-11-22T07:17:04;3.20;;;1.63;;
46116;SDS011;32591;48.102;11.772;2022-11-22T07:21:58;4.70;;;1.43;;
46116;SDS011;32591;48.102;11.772;2022-11-22T07:24:25;3.83;;;1.30;;
46116;SDS011;32591;48.102;11.772;2022-11-22T07:26:52;3.22;;;1.50;;
46116;SDS011;32591;48.102;11.772;2022-11-22T07:29:21;6.45;;;1.70;;
46116;SDS011;32591;48.102;11.772;2022-11-22T07:31:48;3.83;;;2.10;;
46116;SDS011;32591;48.102;11.772;2022-11-22T07:36:41;3.83;;;2.20;;
46116;SDS011;32591;48.102;11.772;2022-11-22T07:41:36;1.85;;;1.20;;
46116;SDS011;32591;48.102;11.772;2022-11-22T07:46:31;2.55;;;1.10;;
46116;SDS011;32591;48.102;11.772;2022-11-22T07:48:59;2.72;;;1.27;;
46116;SDS011;32591;48.102;11.772;2022-11-22T07:51:27;2.10;;;1.40;;
46116;SDS011;32591;48.102;11.772;2022-11-22T07:53:54;4.35;;;1.40;;
46116;SDS011;32591;48.102;11.772;2022-11-22T07:56:22;4.75;;;1.48;;
46116;SDS011;32591;48.102;11.772;2022-11-22T07:58:49;5.00;;;1.77;;
46116;SDS011;32591;48.102;11.772;2022-11-22T08:01:16;3.78;;;1.90;;
46116;SDS011;32591;48.102;11.772;2022-11-22T08:03:46;2.58;;;1.27;;
46116;SDS011;32591;48.102;11.772;2022-11-22T08:06:14;3.20;;;1.30;;
46116;SDS011;32591;48.102;11.772;2022-11-22T08:08:41;2.65;;;1.45;;
46116;SDS011;32591;48.102;11.772;2022-11-22T08:11:08;3.50;;;1.80;;
46116;SDS011;32591;48.102;11.772;2022-11-22T08:13:36;4.45;;;1.50;;
46116;SDS011;32591;48.102;11.772;2022-11-22T08:16:04;5.97;;;2.00;;
46116;SDS011;32591;48.102;11.772;2022-11-22T08:18:35;6.00;;;2.15;;
46116;SDS011;32591;48.102;11.772;2022-11-22T08:21:05;3.53;;;2.28;;
46116;SDS011;32591;48.102;11.772;2022-11-22T08:23:34;4.30;;;1.70;;
46116;SDS011;32591;48.102;11.772;2022-11-22T08:26:02;4.20;;;2.10;;
46116;SDS011;32591;48.102;11.772;2022-11-22T08:28:30;5.10;;;1.70;;
46116;SDS011;32591;48.102;11.772;2022-11-22T08:30:58;3.00;;;1.40;;
46116;SDS011;32591;48.102;11.772;2022-11-22T08:33:27;5.05;;;1.88;;
46116;SDS011;32591;48.102;11.772;2022-11-22T08:35:54;3.70;;;1.73;;
46116;SDS011;32591;48.102;11.772;2022-11-22T08:38:22;3.00;;;1.92;;
46116;SDS011;32591;48.102;11.772;2022-11-22T08:40:49;6.15;;;2.13;;
46116;SDS011;32591;48.102;11.772;2022-11-22T08:43:17;4.63;;;1.80;;
46116;SDS011;32591;48.102;11.772;2022-11-22T08:45:44;4.25;;;1.50;;
46116;SDS011;32591;48.102;11.772;2022-11-22T08:48:11;6.20;;;1.80;;
46116;SDS011;32591;48.102;11.772;2022-11-22T08:50:38;5.47;;;1.90;;
46116;SDS011;32591;48.102;11.772;2022-11-22T08:53:05;5.35;;;1.65;;
46116;SDS011;32591;48.102;11.772;2022-11-22T08:58:00;4.22;;;1.73;;
46116;SDS011;32591;48.102;11.772;2022-11-22T09:02:54;9.25;;;2.25;;
46116;SDS011;32591;48.102;11.772;2022-11-22T09:05:21;3.97;;;1.90;;
46116;SDS011;32591;48.102;11.772;2022-11-22T09:07:48;4.72;;;2.38;;
46116;SDS011;32591;48.102;11.772;2022-11-22T09:10:15;7.18;;;3.03;;
46116;SDS011;32591;48.102;11.772;2022-11-22T09:12:44;3.83;;;1.63;;
46116;SDS011;32591;48.102;11.772;2022-11-22T09:15:12;8.27;;;2.63;;
46116;SDS011;32591;48.102;11.772;2022-11-22T09:17:40;3.88;;;2.20;;
46116;SDS011;32591;48.102;11.772;2022-11-22T09:20:08;5.97;;;2.17;;
46116;SDS011;32591;48.102;11.772;2022-11-22T09:22:36;4.50;;;1.70;;
46116;SDS011;32591;48.102;11.772;2022-11-22T09:25:04;4.57;;;1.58;;
46116;SDS011;32591;48.102;11.772;2022-11-22T09:27:32;6.70;;;2.00;;
46116;SDS011;32591;48.102;11.772;2022-11-22T09:30:01;6.40;;;2.50;;
46116;SDS011;32591;48.102;11.772;2022-11-22T09:32:29;4.53;;;1.80;;
46116;SDS011;32591;48.102;11.772;2022-11-22T09:34:56;3.72;;;1.50;;
46116;SDS011;32591;48.102;11.772;2022-11-22T09:39:50;4.47;;;1.42;;
46116;SDS011;32591;48.102;11.772;2022-11-22T09:48:39;3.72;;;1.48;;
46116;SDS011;32591;48.102;11.772;2022-11-22T09:51:35;5.30;;;1.83;;
46116;SDS011;32591;48.102;11.772;2022-11-22T09:54:06;6.30;;;1.50;;
46116;SDS011;32591;48.102;11.772;2022-11-22T09:56:37;8.02;;;2.00;;
46116;SDS011;32591;48.102;11.772;2022-11-22T09:59:04;5.00;;;1.30;;
46116;SDS011;32591;48.102;11.772;2022-11-22T10:01:39;4.65;;;1.65;;
46116;SDS011;32591;48.102;11.772;2022-11-22T10:04:13;5.93;;;1.80;;
46116;SDS011;32591;48.102;11.772;2022-11-22T10:06:42;5.25;;;1.80;;
46116;SDS011;32591;48.102;11.772;2022-11-22T10:09:21;6.22;;;2.38;;
46116;SDS011;32591;48.102;11.772;2022-11-22T10:11:58;4.43;;;1.75;;
46116;SDS011;32591;48.102;11.772;2022-11-22T10:14:32;7.03;;;2.30;;
46116;SDS011;32591;48.102;11.772;2022-11-22T10:17:12;10.35;;;2.72;;
46116;SDS011;32591;48.102;11.772;2022-11-22T10:19:51;6.47;;;2.03;;
46116;SDS011;32591;48.102;11.772;2022-11-22T10:22:27;1.95;;;1.08;;
46116;SDS011;32591;48.102;11.772;2022-11-22T10:24:55;5.55;;;1.38;;
46116;SDS011;32591;48.102;11.772;2022-11-22T10:27:25;7.85;;;1.58;;
46116;SDS011;32591;48.102;11.772;2022-11-22T10:29:57;4.88;;;1.27;;
46116;SDS011;32591;48.102;11.772;2022-11-22T10:32:32;5.05;;;1.33;;
46116;SDS011;32591;48.102;11.772;2022-11-22T10:35:10;4.50;;;1.60;;
46116;SDS011;32591;48.102;11.772;2022-11-22T10:37:51;6.13;;;1.60;;
46116;SDS011;32591;48.102;11.772;2022-11-22T10:40:28;8.20;;;1.83;;
46116;SDS011;32591;48.102;11.772;2022-11-22T10:43:18;4.30;;;1.50;;
46116;SDS011;32591;48.102;11.772;2022-11-22T10:45:55;5.75;;;1.50;;
46116;SDS011;32591;48.102;11.772;2022-11-22T10:48:31;4.38;;;1.23;;
46116;SDS011;32591;48.102;11.772;2022-11-22T10:51:09;4.75;;;1.38;;
46116;SDS011;32591;48.102;11.772;2022-11-22T10:56:20;4.20;;;1.48;;
46116;SDS011;32591;48.102;11.772;2022-11-22T10:58:55;4.93;;;1.60;;
46116;SDS011;32591;48.102;11.772;2022-11-22T11:01:42;5.25;;;1.33;;
46116;SDS011;32591;48.102;11.772;2022-11-22T11:04:20;4.05;;;1.30;;
46116;SDS011;32591;48.102;11.772;2022-11-22T11:06:50;3.78;;;1.30;;
46116;SDS011;32591;48.102;11.772;2022-11-22T11:09:30;4.90;;;1.30;;
46116;SDS011;32591;48.102;11.772;2022-11-22T11:12:05;3.20;;;1.40;;
46116;SDS011;32591;48.102;11.772;2022-11-22T11:14:38;4.70;;;1.90;;
46116;SDS011;32591;48.102;11.772;2022-11-22T11:17:12;7.50;;;2.22;;
46116;SDS011;32591;48.102;11.772;2022-11-22T11:19:46;5.78;;;1.52;;
46116;SDS011;32591;48.102;11.772;2022-11-22T11:22:15;6.13;;;2.20;;
46116;SDS011;32591;48.102;11.772;2022-11-22T11:24:46;7.30;;;1.80;;
46116;SDS011;32591;48.102;11.772;2022-11-22T11:27:13;7.63;;;2.13;;
46116;SDS011;32591;48.102;11.772;2022-11-22T11:29:43;6.60;;;1.95;;
46116;SDS011;32591;48.102;11.772;2022-11-22T11:32:13;5.78;;;2.22;;
46116;SDS011;32591;48.102;11.772;2022-11-22T11:34:50;6.38;;;1.77;;
46116;SDS011;32591;48.102;11.772;2022-11-22T11:37:22;4.82;;;1.55;;
46116;SDS011;32591;48.102;11.772;2022-11-22T11:39:52;5.25;;;1.52;;
46116;SDS011;32591;48.102;11.772;2022-11-22T11:42:23;5.22;;;2.03;;
46116;SDS011;32591;48.102;11.772;2022-11-22T11:44:53;5.65;;;1.70;;
46116;SDS011;32591;48.102;11.772;2022-11-22T11:47:44;3.85;;;1.55;;
46116;SDS011;32591;48.102;11.772;2022-11-22T11:50:16;2.85;;;0.90;;
46116;SDS011;32591;48.102;11.772;2022-11-22T11:52:48;3.83;;;0.85;;
46116;SDS011;32591;48.102;11.772;2022-11-22T11:55:17;4.28;;;1.42;;
46116;SDS011;32591;48.102;11.772;2022-11-22T11:57:45;2.72;;;1.10;;
46116;SDS011;32591;48.102;11.772;2022-11-22T12:00:18;4.38;;;1.48;;
46116;SDS011;32591;48.102;11.772;2022-11-22T12:02:50;7.10;;;2.08;;
46116;SDS011;32591;48.102;11.772;2022-11-22T12:05:25;4.47;;;1.35;;
46116;SDS011;32591;48.102;11.772;2022-11-22T12:07:54;4.25;;;1.30;;
46116;SDS011;32591;48.102;11.772;2022-11-22T12:10:26;4.63;;;1.40;;
46116;SDS011;32591;48.102;11.772;2022-11-22T12:13:02;3.55;;;2.20;;
46116;SDS011;32591;48.102;11.772;2022-11-22T12:15:41;3.03;;;1.40;;
46116;SDS011;32591;48.102;11.772;2022-11-22T12:18:25;1.98;;;1.60;;
46116;SDS011;32591;48.102;11.772;2022-11-22T12:21:05;4.40;;;1.52;;
46116;SDS011;32591;48.102;11.772;2022-11-22T12:23:42;2.72;;;1.17;;
46116;SDS011;32591;48.102;11.772;2022-11-22T12:26:16;3.75;;;1.70;;
46116;SDS011;32591;48.102;11.772;2022-11-22T12:28:43;5.82;;;1.17;;
46116;SDS011;32591;48.102;11.772;2022-11-22T12:31:12;4.85;;;1.60;;
46116;SDS011;32591;48.102;11.772;2022-11-22T12:33:51;4.28;;;0.70;;
46116;SDS011;32591;48.102;11.772;2022-11-22T12:36:25;5.70;;;1.60;;
46116;SDS011;32591;48.102;11.772;2022-11-22T12:39:00;6.88;;;1.55;;
46116;SDS011;32591;48.102;11.772;2022-11-22T12:41:29;5.40;;;1.73;;
46116;SDS011;32591;48.102;11.772;2022-11-22T12:43:59;5.90;;;1.50;;
46116;SDS011;32591;48.102;11.772;2022-11-22T12:46:29;3.75;;;1.38;;
46116;SDS011;32591;48.102;11.772;2022-11-22T12:49:03;4.75;;;1.50;;
46116;SDS011;32591;48.102;11.772;2022-11-22T12:51:41;9.00;;;2.55;;
46116;SDS011;32591;48.102;11.772;2022-11-22T12:54:13;9.13;;;3.13;;
46116;SDS011;32591;48.102;11.772;2022-11-22T12:56:45;6.43;;;2.10;;
46116;SDS011;32591;48.102;11.772;2022-11-22T12:59:20;7.00;;;2.10;;
46116;SDS011;32591;48.102;11.772;2022-11-22T13:01:59;7.55;;;2.08;;
46116;SDS011;32591;48.102;11.772;2022-11-22T13:04:39;7.07;;;1.88;;
46116;SDS011;32591;48.102;11.772;2022-11-22T13:07:16;2.25;;;1.73;;
46116;SDS011;32591;48.102;11.772;2022-11-22T13:09:50;2.58;;;1.20;;
46116;SDS011;32591;48.102;11.772;2022-11-22T13:12:25;5.55;;;3.22;;
46116;SDS011;32591;48.102;11.772;2022-11-22T13:14:56;3.28;;;1.52;;
46116;SDS011;32591;48.102;11.772;2022-11-22T13:17:24;2.78;;;1.48;;
46116;SDS011;32591;48.102;11.772;2022-11-22T13:19:59;5.13;;;1.60;;
46116;SDS011;32591;48.102;11.772;2022-11-22T13:22:34;2.63;;;1.75;;
46116;SDS011;32591;48.102;11.772;2022-11-22T13:25:21;2.70;;;1.00;;
46116;SDS011;32591;48.102;11.772;2022-11-22T13:28:08;3.50;;;1.30;;
46116;SDS011;32591;48.102;11.772;2022-11-22T13:30:39;5.88;;;1.70;;
46116;SDS011;32591;48.102;11.772;2022-11-22T13:33:41;5.22;;;1.77;;
46116;SDS011;32591;48.102;11.772;2022-11-22T13:36:23;1.40;;;1.13;;
46116;SDS011;32591;48.102;11.772;2022-11-22T13:39:05;2.28;;;1.02;;
46116;SDS011;32591;48.102;11.772;2022-11-22T13:41:39;3.33;;;1.30;;
46116;SDS011;32591;48.102;11.772;2022-11-22T13:44:23;3.20;;;1.25;;
46116;SDS011;32591;48.102;11.772;2022-11-22T13:46:59;3.63;;;2.15;;
46116;SDS011;32591;48.102;11.772;2022-11-22T13:49:36;4.75;;;2.20;;
46116;SDS011;32591;48.102;11.772;2022-11-22T13:52:28;4.30;;;1.90;;
46116;SDS011;32591;48.102;11.772;2022-11-22T13:55:24;5.88;;;2.33;;
46116;SDS011;32591;48.102;11.772;2022-11-22T14:01:27;9.35;;;2.78;;
46116;SDS011;32591;48.102;11.772;2022-11-22T14:04:27;4.65;;;2.10;;
46116;SDS011;32591;48.102;11.772;2022-11-22T14:07:22;7.25;;;2.10;;
46116;SDS011;32591;48.102;11.772;2022-11-22T14:16:00;9.48;;;3.25;;
46116;SDS011;32591;48.102;11.772;2022-11-22T14:18:45;5.88;;;2.50;;
46116;SDS011;32591;48.102;11.772;2022-11-22T14:21:24;5.63;;;2.78;;
46116;SDS011;32591;48.102;11.772;2022-11-22T14:24:27;7.40;;;3.10;;
46116;SDS011;32591;48.102;11.772;2022-11-22T14:27:16;5.65;;;2.53;;
46116;SDS011;32591;48.102;11.772;2022-11-22T14:30:06;3.95;;;1.92;;
46116;SDS011;32591;48.102;11.772;2022-11-22T14:32:55;7.90;;;2.67;;
46116;SDS011;32591;48.102;11.772;2022-11-22T14:35:31;3.35;;;1.65;;
46116;SDS011;32591;48.102;11.772;2022-11-22T14:44:10;5.18;;;2.17;;
46116;SDS011;32591;48.102;11.772;2022-11-22T14:46:45;4.18;;;1.98;;
46116;SDS011;32591;48.102;11.772;2022-11-22T14:49:20;5.00;;;2.03;;
46116;SDS011;32591;48.102;11.772;2022-11-22T14:52:00;5.07;;;2.03;;
46116;SDS011;32591;48.102;11.772;2022-11-22T14:54:28;2.53;;;1.75;;
46116;SDS011;32591;48.102;11.772;2022-11-22T14:57:04;5.43;;;2.22;;
46116;SDS011;32591;48.102;11.772;2022-11-22T14:59:43;7.25;;;1.98;;
46116;SDS011;32591;48.102;11.772;2022-11-22T15:02:37;7.97;;;4.07;;
46116;SDS011;32591;48.102;11.772;2022-11-22T15:05:29;8.63;;;4.75;;
46116;SDS011;32591;48.102;11.772;2022-11-22T15:08:20;6.25;;;2.58;;
46116;SDS011;32591;48.102;11.772;2022-11-22T15:11:15;4.10;;;2.28;;
46116;SDS011;32591;48.102;11.772;2022-11-22T15:14:23;3.50;;;2.03;;
46116;SDS011;32591;48.102;11.772;2022-11-22T15:17:19;2.88;;;2.15;;
46116;SDS011;32591;48.102;11.772;2022-11-22T15:19:49;4.80;;;2.20;;
46116;SDS011;32591;48.102;11.772;2022-11-22T15:22:17;3.30;;;2.10;;
46116;SDS011;32591;48.102;11.772;2022-11-22T15:24:48;3.15;;;1.70;;
46116;SDS011;32591;48.102;11.772;2022-11-22T15:27:18;3.38;;;1.48;;
46116;SDS011;32591;48.102;11.772;2022-11-22T15:32:44;5.40;;;2.17;;
46116;SDS011;32591;48.102;11.772;2022-11-22T15:35:13;5.57;;;1.90;;
46116;SDS011;32591;48.102;11.772;2022-11-22T15:37:43;4.45;;;2.17;;
46116;SDS011;32591;48.102;11.772;2022-11-22T15:42:50;6.88;;;2.80;;
46116;SDS011;32591;48.102;11.772;2022-11-22T15:45:20;4.93;;;2.15;;
46116;SDS011;32591;48.102;11.772;2022-11-22T15:47:52;5.40;;;1.98;;
46116;SDS011;32591;48.102;11.772;2022-11-22T15:50:21;7.28;;;2.58;;
46116;SDS011;32591;48.102;11.772;2022-11-22T15:52:49;6.30;;;2.28;;
46116;SDS011;32591;48.102;11.772;2022-11-22T15:55:19;4.35;;;1.85;;
46116;SDS011;32591;48.102;11.772;2022-11-22T15:57:49;3.70;;;2.00;;
46116;SDS011;32591;48.102;11.772;2022-11-22T16:00:20;5.55;;;2.00;;
46116;SDS011;32591;48.102;11.772;2022-11-22T16:02:50;3.53;;;2.08;;